createdAt,value
2022-08-19T00:01:43.637Z,7.50
2022-08-19T00:04:13.680Z,6.63
2022-08-19T00:06:45.303Z,8.00
2022-08-19T00:09:17.246Z,7.57
2022-08-19T00:11:45.850Z,7.75
2022-08-19T00:14:15.700Z,7.88
2022-08-19T00:16:45.374Z,7.43
2022-08-19T00:19:13.401Z,9.25
2022-08-19T00:21:41.358Z,10.00
2022-08-19T00:24:13.010Z,9.02
2022-08-19T00:26:42.449Z,9.30
2022-08-19T00:29:12.569Z,9.90
2022-08-19T00:31:41.503Z,9.90
2022-08-19T00:34:09.327Z,11.18
2022-08-19T00:36:37.956Z,13.05
2022-08-19T00:39:05.986Z,12.15
2022-08-19T00:41:35.318Z,13.02
2022-08-19T00:44:07.190Z,14.73
2022-08-19T00:46:37.597Z,16.52
2022-08-19T00:49:11.041Z,14.38
2022-08-19T00:51:39.198Z,17.23
2022-08-19T00:54:07.346Z,17.08
2022-08-19T00:56:37.488Z,16.65
2022-08-19T00:59:10.067Z,16.48
2022-08-19T01:01:38.343Z,17.45
2022-08-19T01:04:06.114Z,19.58
2022-08-19T01:06:35.547Z,18.83
2022-08-19T01:09:03.930Z,18.70
2022-08-19T01:11:32.767Z,18.45
2022-08-19T01:14:01.963Z,19.80
2022-08-19T01:16:31.857Z,17.02
2022-08-19T01:18:59.543Z,18.20
2022-08-19T01:21:31.695Z,16.95
2022-08-19T01:24:00.676Z,15.32
2022-08-19T01:26:31.244Z,17.13
2022-08-19T01:29:01.930Z,16.38
2022-08-19T01:31:32.736Z,16.48
2022-08-19T01:34:02.499Z,16.17
2022-08-19T01:36:33.456Z,16.10
2022-08-19T01:39:03.983Z,16.10
2022-08-19T01:41:31.665Z,16.38
2022-08-19T01:44:03.855Z,15.73
2022-08-19T01:46:46.377Z,17.38
2022-08-19T01:49:15.480Z,14.77
2022-08-19T01:51:43.152Z,15.48
2022-08-19T01:54:27.177Z,15.05
2022-08-19T01:57:01.922Z,15.90
2022-08-19T01:59:30.112Z,15.65
2022-08-19T02:01:58.332Z,17.42
2022-08-19T02:04:26.506Z,18.17
2022-08-19T02:06:54.269Z,17.95
2022-08-19T02:09:23.342Z,18.55
2022-08-19T02:11:50.988Z,17.63
2022-08-19T02:14:18.691Z,18.27
2022-08-19T02:16:46.351Z,17.52
2022-08-19T02:19:14.136Z,17.25
2022-08-19T02:21:42.067Z,17.35
2022-08-19T02:24:09.766Z,17.00
2022-08-19T02:26:38.791Z,18.35
2022-08-19T02:29:09.579Z,18.05
2022-08-19T02:31:37.379Z,19.33
2022-08-19T02:34:05.336Z,18.58
2022-08-19T02:36:33.135Z,19.17
2022-08-19T02:39:00.112Z,19.27
2022-08-19T02:41:31.802Z,18.77
2022-08-19T02:44:28.942Z,18.45
2022-08-19T02:46:51.891Z,21.65
2022-08-19T02:49:21.327Z,20.10
2022-08-19T02:51:49.571Z,20.77
2022-08-19T02:54:17.855Z,22.70
2022-08-19T02:56:46.762Z,20.77
2022-08-19T02:59:15.817Z,21.30
2022-08-19T03:01:44.373Z,21.65
2022-08-19T03:04:16.618Z,23.63
2022-08-19T03:06:47.026Z,23.05
2022-08-19T03:09:15.918Z,25.00
2022-08-19T03:11:43.649Z,25.38
2022-08-19T03:14:12.122Z,24.50
2022-08-19T03:16:46.372Z,25.95
2022-08-19T03:19:14.368Z,26.52
2022-08-19T03:21:42.202Z,27.60
2022-08-19T03:24:10.912Z,27.50
2022-08-19T03:26:41.362Z,28.55
2022-08-19T03:29:11.998Z,26.80
2022-08-19T03:31:52.492Z,25.02
2022-08-19T03:34:23.741Z,27.67
2022-08-19T03:36:51.955Z,26.63
2022-08-19T03:39:19.911Z,24.92
2022-08-19T03:41:50.855Z,25.05
2022-08-19T03:44:39.624Z,25.80
2022-08-19T03:47:08.722Z,23.75
2022-08-19T03:49:37.545Z,24.55
2022-08-19T03:52:08.505Z,25.67
2022-08-19T03:54:36.867Z,26.02
2022-08-19T03:57:05.143Z,26.60
2022-08-19T03:59:34.777Z,26.80
2022-08-19T04:02:04.979Z,27.52
2022-08-19T04:04:33.978Z,26.60
2022-08-19T04:07:01.627Z,26.38
2022-08-19T04:09:29.371Z,24.67
2022-08-19T04:11:58.670Z,24.75
2022-08-19T04:14:30.952Z,25.30
2022-08-19T04:16:59.511Z,25.73
2022-08-19T04:19:28.119Z,26.13
2022-08-19T04:21:57.393Z,24.95
2022-08-19T04:24:25.912Z,27.27
2022-08-19T04:26:53.960Z,26.80
2022-08-19T04:29:25.948Z,27.85
2022-08-19T04:31:55.312Z,26.75
2022-08-19T04:34:25.017Z,24.92
2022-08-19T04:36:54.337Z,25.10
2022-08-19T04:39:47.067Z,25.70
2022-08-19T04:42:33.259Z,23.67
2022-08-19T04:45:01.703Z,23.27
2022-08-19T04:47:47.616Z,23.88
2022-08-19T04:50:17.592Z,23.73
2022-08-19T04:52:46.962Z,24.88
2022-08-19T04:55:16.120Z,22.25
2022-08-19T04:57:43.790Z,21.85
2022-08-19T05:00:12.561Z,22.55
2022-08-19T05:02:40.939Z,21.48
2022-08-19T05:05:09.323Z,22.55
2022-08-19T05:07:37.915Z,23.20
2022-08-19T05:10:07.655Z,22.30
2022-08-19T05:12:36.789Z,24.63
2022-08-19T05:15:07.089Z,22.38
2022-08-19T05:17:38.255Z,21.55
2022-08-19T05:20:26.299Z,21.23
2022-08-19T05:22:54.169Z,19.92
2022-08-19T05:25:23.275Z,20.77
2022-08-19T05:27:52.408Z,19.58
2022-08-19T05:30:30.212Z,19.85
2022-08-19T05:33:13.110Z,19.23
2022-08-19T05:35:41.234Z,18.52
2022-08-19T05:38:09.867Z,18.58
2022-08-19T05:40:38.045Z,18.75
2022-08-19T05:43:09.217Z,19.10
2022-08-19T05:45:41.034Z,17.98
2022-08-19T05:48:08.797Z,18.45
2022-08-19T05:50:37.929Z,17.55
2022-08-19T05:53:05.903Z,16.40
2022-08-19T05:55:33.858Z,16.58
2022-08-19T05:58:02.754Z,16.80
2022-08-19T06:00:32.336Z,16.60
2022-08-19T06:03:12.421Z,16.83
2022-08-19T06:05:42.217Z,17.38
2022-08-19T06:08:19.453Z,15.55
2022-08-19T06:10:47.370Z,15.07
2022-08-19T06:13:15.327Z,14.05
2022-08-19T06:15:47.427Z,14.32
2022-08-19T06:18:16.120Z,15.10
2022-08-19T06:20:55.406Z,14.40
2022-08-19T06:23:24.516Z,16.60
2022-08-19T06:25:52.339Z,14.75
2022-08-19T06:28:20.352Z,14.85
2022-08-19T06:30:49.738Z,15.00
2022-08-19T06:33:17.709Z,15.55
2022-08-19T06:35:46.539Z,15.52
2022-08-19T06:38:14.551Z,14.43
2022-08-19T06:43:10.273Z,15.10
2022-08-19T06:45:39.639Z,15.82
2022-08-19T06:48:11.800Z,15.68
2022-08-19T06:50:40.983Z,13.90
2022-08-19T06:53:09.584Z,13.18
2022-08-19T06:55:38.578Z,14.00
2022-08-19T06:58:07.289Z,13.73
2022-08-19T07:00:35.207Z,12.15
2022-08-19T07:03:07.712Z,11.38
2022-08-19T07:05:45.428Z,12.00
2022-08-19T07:08:14.126Z,11.60
2022-08-19T07:10:45.360Z,10.15
2022-08-19T07:13:13.548Z,9.95
2022-08-19T07:15:41.443Z,10.20
2022-08-19T07:18:11.825Z,9.80
2022-08-19T07:20:42.667Z,9.32
2022-08-19T07:23:15.942Z,10.80
2022-08-19T07:25:44.660Z,8.90
2022-08-19T07:28:24.136Z,10.55
2022-08-19T07:30:54.332Z,9.77
2022-08-19T07:33:23.799Z,10.30
2022-08-19T07:35:57.148Z,10.63
2022-08-19T07:38:25.042Z,9.05
2022-08-19T07:40:54.959Z,9.13
2022-08-19T07:43:26.272Z,8.20
2022-08-19T07:46:03.021Z,7.68
2022-08-19T07:48:31.428Z,7.60
2022-08-19T07:51:06.077Z,7.47
2022-08-19T07:53:39.145Z,7.10
2022-08-19T07:56:08.281Z,7.20
2022-08-19T07:58:39.021Z,8.27
2022-08-19T08:01:09.174Z,7.30
2022-08-19T08:03:56.084Z,6.65
2022-08-19T08:06:43.644Z,7.43
2022-08-19T08:12:01.951Z,8.95
2022-08-19T08:14:36.004Z,10.27
2022-08-19T08:17:05.189Z,8.68
2022-08-19T08:19:39.853Z,8.75
2022-08-19T08:22:09.362Z,9.48
2022-08-19T08:24:37.152Z,11.23
2022-08-19T08:27:11.312Z,9.80
2022-08-19T08:29:39.512Z,10.45
2022-08-19T08:32:14.846Z,10.73
2022-08-19T08:34:42.983Z,10.48
2022-08-19T08:37:12.306Z,11.48
2022-08-19T08:39:43.902Z,10.68
2022-08-19T08:42:18.019Z,11.95
2022-08-19T08:47:29.568Z,10.77
2022-08-19T08:50:01.676Z,11.07
2022-08-19T08:52:36.265Z,12.80
2022-08-19T08:55:09.993Z,12.73
2022-08-19T08:57:46.297Z,12.48
2022-08-19T09:00:20.812Z,11.63
2022-08-19T09:02:50.804Z,12.60
2022-08-19T09:05:22.460Z,14.93
2022-08-19T09:08:00.325Z,12.27
2022-08-19T09:10:33.654Z,13.07
2022-08-19T09:13:13.341Z,12.00
2022-08-19T09:15:46.031Z,11.38
2022-08-19T09:18:19.440Z,10.70
2022-08-19T09:20:48.997Z,11.18
2022-08-19T09:23:18.164Z,11.10
2022-08-19T09:25:54.857Z,10.90
2022-08-19T09:28:27.046Z,10.00
2022-08-19T09:30:55.172Z,9.75
2022-08-19T09:33:23.405Z,10.45
2022-08-19T09:35:53.717Z,11.13
2022-08-19T09:38:23.703Z,10.15
2022-08-19T09:40:51.601Z,11.07
2022-08-19T09:43:33.242Z,11.68
2022-08-19T09:46:02.125Z,11.93
2022-08-19T09:48:29.807Z,13.05
2022-08-19T09:51:05.165Z,12.55
2022-08-19T09:53:34.632Z,13.40
2022-08-19T09:56:06.519Z,13.27
2022-08-19T09:58:37.432Z,11.02
2022-08-19T10:01:06.595Z,11.40
2022-08-19T10:03:35.937Z,10.38
2022-08-19T10:06:06.047Z,11.68
2022-08-19T10:08:49.915Z,12.40
2022-08-19T10:11:27.301Z,12.88
2022-08-19T10:13:56.601Z,13.02
2022-08-19T10:16:30.354Z,14.40
2022-08-19T10:18:58.795Z,14.32
2022-08-19T10:21:32.077Z,14.35
2022-08-19T10:24:04.791Z,14.63
2022-08-19T10:26:34.900Z,14.68
2022-08-19T10:29:02.769Z,14.10
2022-08-19T10:32:00.827Z,15.70
2022-08-19T10:34:27.692Z,14.02
2022-08-19T10:37:01.112Z,15.50
2022-08-19T10:39:31.717Z,14.05
2022-08-19T10:42:00.710Z,13.68
2022-08-19T10:44:32.102Z,13.77
2022-08-19T10:47:01.021Z,13.95
2022-08-19T10:49:28.980Z,14.23
2022-08-19T10:52:18.996Z,14.55
2022-08-19T10:55:08.192Z,15.13
2022-08-19T10:57:59.384Z,15.88
2022-08-19T11:00:26.319Z,15.27
2022-08-19T11:02:54.310Z,14.38
2022-08-19T11:05:24.457Z,15.10
2022-08-19T11:07:53.332Z,15.02
2022-08-19T11:10:24.800Z,14.23
2022-08-19T11:12:55.139Z,14.68
2022-08-19T11:15:23.465Z,14.23
2022-08-19T11:17:53.290Z,15.98
2022-08-19T11:20:21.274Z,11.60
2022-08-19T11:22:49.437Z,14.52
2022-08-19T11:25:17.309Z,13.98
2022-08-19T11:27:47.236Z,14.60
2022-08-19T11:30:16.057Z,13.55
2022-08-19T11:32:49.074Z,14.10
2022-08-19T11:35:17.748Z,13.77
2022-08-19T11:37:45.535Z,13.93
2022-08-19T11:40:14.194Z,13.35
2022-08-19T11:42:57.142Z,11.55
2022-08-19T11:45:27.167Z,11.32
2022-08-19T11:47:55.664Z,12.98
2022-08-19T11:50:24.591Z,11.60
2022-08-19T11:52:55.746Z,11.85
2022-08-19T11:55:24.514Z,12.20
2022-08-19T11:57:52.897Z,11.48
2022-08-19T12:00:21.256Z,11.55
2022-08-19T12:02:50.639Z,11.05
2022-08-19T12:05:18.874Z,13.07
2022-08-19T12:07:46.883Z,13.50
2022-08-19T12:10:16.064Z,12.18
2022-08-19T12:12:58.805Z,12.70
2022-08-19T12:15:29.004Z,12.35
2022-08-19T12:18:06.948Z,12.25
2022-08-19T12:20:37.298Z,11.75
2022-08-19T12:23:06.053Z,12.52
2022-08-19T12:25:35.379Z,11.43
2022-08-19T12:28:04.117Z,11.05
2022-08-19T12:30:32.351Z,10.30
2022-08-19T12:33:00.159Z,11.45
2022-08-19T12:35:31.534Z,11.98
2022-08-19T12:38:00.915Z,10.77
2022-08-19T12:40:29.233Z,11.68
2022-08-19T12:42:56.997Z,11.00
2022-08-19T12:45:25.767Z,12.18
2022-08-19T12:47:55.254Z,11.25
2022-08-19T12:50:23.427Z,11.18
2022-08-19T12:52:52.950Z,12.32
2022-08-19T12:55:21.020Z,12.35
2022-08-19T12:57:49.606Z,11.82
2022-08-19T13:00:21.830Z,11.38
2022-08-19T13:02:52.069Z,11.52
2022-08-19T13:05:23.400Z,10.95
2022-08-19T13:07:55.973Z,13.63
2022-08-19T13:10:28.821Z,11.82
2022-08-19T13:12:57.399Z,11.35
2022-08-19T13:15:25.999Z,11.80
2022-08-19T13:17:56.843Z,11.75
2022-08-19T13:20:25.987Z,12.00
2022-08-19T13:22:56.205Z,12.50
2022-08-19T13:25:23.978Z,12.48
2022-08-19T13:27:52.281Z,12.35
2022-08-19T13:30:39.037Z,12.43
2022-08-19T13:33:14.991Z,12.48
2022-08-19T13:35:47.037Z,12.55
2022-08-19T13:38:17.508Z,12.68
2022-08-19T13:40:45.473Z,13.00
2022-08-19T13:43:22.746Z,12.57
2022-08-19T13:45:56.960Z,12.57
2022-08-19T13:48:27.365Z,12.05
2022-08-19T13:50:55.642Z,11.80
2022-08-19T13:53:25.556Z,11.23
2022-08-19T13:55:54.646Z,11.80
2022-08-19T13:58:22.801Z,12.23
2022-08-19T14:00:50.775Z,12.18
2022-08-19T14:03:18.535Z,12.38
2022-08-19T14:05:47.651Z,13.43
2022-08-19T14:08:15.697Z,12.27
2022-08-19T14:10:45.723Z,14.15
2022-08-19T14:13:16.946Z,13.30
2022-08-19T14:15:45.057Z,13.93
2022-08-19T14:18:12.997Z,14.23
2022-08-19T14:20:40.684Z,13.35
2022-08-19T14:23:08.617Z,14.23
2022-08-19T14:25:37.113Z,13.68
2022-08-19T14:28:07.660Z,13.23
2022-08-19T14:30:39.122Z,12.63
2022-08-19T14:33:09.379Z,11.38
2022-08-19T14:35:38.056Z,12.15
2022-08-19T14:38:08.257Z,12.40
2022-08-19T14:40:36.188Z,11.55
2022-08-19T14:43:06.720Z,11.73
2022-08-19T14:45:37.658Z,11.25
2022-08-19T14:48:05.944Z,11.93
2022-08-19T14:50:34.041Z,13.52
2022-08-19T14:53:09.038Z,12.50
2022-08-19T14:55:43.875Z,11.15
2022-08-19T14:58:29.566Z,11.85
2022-08-19T15:01:00.327Z,11.95
2022-08-19T15:03:28.508Z,12.15
2022-08-19T15:05:57.583Z,12.45
2022-08-19T15:08:28.579Z,12.48
2022-08-19T15:10:57.092Z,11.70
2022-08-19T15:13:28.146Z,11.50
2022-08-19T15:15:56.434Z,10.98
2022-08-19T15:18:24.268Z,11.00
2022-08-19T15:20:52.645Z,9.82
2022-08-19T15:23:21.985Z,9.63
2022-08-19T15:25:52.891Z,9.63
2022-08-19T15:28:20.616Z,8.70
2022-08-19T15:30:50.953Z,9.00
2022-08-19T15:33:20.542Z,8.88
2022-08-19T15:35:51.826Z,9.20
2022-08-19T15:38:22.413Z,9.80
2022-08-19T15:40:51.293Z,10.15
2022-08-19T15:43:21.740Z,8.88
2022-08-19T15:45:50.819Z,8.63
2022-08-19T15:48:18.907Z,8.07
2022-08-19T15:50:46.732Z,8.35
2022-08-19T15:53:14.688Z,7.80
2022-08-19T15:55:45.933Z,7.57
2022-08-19T15:58:33.360Z,7.22
2022-08-19T16:01:27.244Z,7.93
2022-08-19T16:04:15.697Z,7.70
2022-08-19T16:06:46.905Z,7.68
2022-08-19T16:09:16.122Z,6.60
2022-08-19T16:11:45.878Z,6.32
2022-08-19T16:14:14.717Z,6.25
2022-08-19T16:16:46.681Z,6.57
2022-08-19T16:19:17.062Z,6.70
2022-08-19T16:21:45.774Z,6.72
2022-08-19T16:24:15.392Z,7.00
2022-08-19T16:26:44.354Z,6.75
2022-08-19T16:29:13.518Z,7.38
2022-08-19T16:31:44.711Z,7.13
2022-08-19T16:34:14.599Z,7.10
2022-08-19T16:36:43.672Z,6.47
2022-08-19T16:39:12.578Z,7.18
2022-08-19T16:41:41.583Z,6.68
2022-08-19T16:44:11.515Z,6.18
2022-08-19T16:46:41.670Z,5.65
2022-08-19T16:49:12.419Z,6.47
2022-08-19T16:51:41.387Z,6.40
2022-08-19T16:54:09.725Z,6.38
2022-08-19T16:56:37.780Z,6.07
2022-08-19T16:59:06.541Z,6.32
2022-08-19T17:01:36.817Z,5.90
2022-08-19T17:04:05.150Z,6.10
2022-08-19T17:06:36.661Z,6.70
2022-08-19T17:09:06.695Z,5.22
2022-08-19T17:11:35.606Z,6.03
2022-08-19T17:14:05.435Z,6.75
2022-08-19T17:16:36.255Z,6.28
2022-08-19T17:19:07.068Z,5.55
2022-08-19T17:21:38.016Z,6.15
2022-08-19T17:24:08.711Z,6.53
2022-08-19T17:26:38.014Z,6.70
2022-08-19T17:29:06.829Z,5.82
2022-08-19T17:31:34.698Z,6.82
2022-08-19T17:34:03.657Z,6.93
2022-08-19T17:36:33.924Z,6.82
2022-08-19T17:39:05.451Z,5.95
2022-08-19T17:41:34.813Z,8.40
2022-08-19T17:44:03.375Z,7.25
2022-08-19T17:46:31.345Z,8.75
2022-08-19T17:48:59.350Z,8.45
2022-08-19T17:51:43.346Z,9.13
2022-08-19T17:54:15.231Z,8.80
2022-08-19T17:56:43.374Z,9.00
2022-08-19T17:59:14.087Z,8.57
2022-08-19T18:01:53.442Z,9.85
2022-08-19T18:04:22.834Z,10.55
2022-08-19T18:06:53.853Z,10.10
2022-08-19T18:09:24.867Z,9.60
2022-08-19T18:11:54.210Z,10.05
2022-08-19T18:14:32.761Z,10.50
2022-08-19T18:17:05.414Z,10.27
2022-08-19T18:19:40.598Z,9.02
2022-08-19T18:22:09.828Z,9.00
2022-08-19T18:24:41.553Z,9.80
2022-08-19T18:27:10.113Z,10.07
2022-08-19T18:29:40.042Z,10.68
2022-08-19T18:32:12.794Z,11.40
2022-08-19T18:34:42.013Z,10.05
2022-08-19T18:37:10.514Z,11.05
2022-08-19T18:39:57.664Z,11.35
2022-08-19T18:42:43.286Z,10.43
2022-08-19T18:45:29.294Z,10.60
2022-08-19T18:48:26.871Z,12.00
2022-08-19T18:50:57.915Z,17.80
2022-08-19T18:53:29.533Z,12.48
2022-08-19T18:55:59.700Z,12.48
2022-08-19T18:58:33.916Z,12.88
2022-08-19T19:01:06.432Z,12.82
2022-08-19T19:03:34.470Z,12.60
2022-08-19T19:06:03.595Z,12.13
2022-08-19T19:08:31.935Z,13.00
2022-08-19T19:11:05.091Z,12.48
2022-08-19T19:13:33.389Z,12.60
2022-08-19T19:16:02.366Z,12.70
2022-08-19T19:18:30.436Z,11.07
2022-08-19T19:20:58.531Z,11.93
2022-08-19T19:23:26.366Z,10.63
2022-08-19T19:25:54.164Z,12.55
2022-08-19T19:28:25.800Z,10.70
2022-08-19T19:30:54.371Z,12.07
2022-08-19T19:33:22.324Z,12.95
2022-08-19T19:35:50.144Z,12.73
2022-08-19T19:38:18.076Z,10.95
2022-08-19T19:40:46.149Z,11.77
2022-08-19T19:43:17.436Z,12.07
2022-08-19T19:45:49.377Z,11.85
2022-08-19T19:48:17.403Z,12.38
2022-08-19T19:50:46.247Z,13.07
2022-08-19T19:53:22.615Z,12.00
2022-08-19T19:55:54.807Z,14.88
2022-08-19T19:58:28.599Z,14.88
2022-08-19T20:00:58.971Z,13.32
2022-08-19T20:03:29.869Z,12.85
2022-08-19T20:05:59.440Z,12.55
2022-08-19T20:08:45.989Z,13.38
2022-08-19T20:11:25.699Z,13.30
2022-08-19T20:13:53.590Z,12.48
2022-08-19T20:16:25.366Z,12.63
2022-08-19T20:18:55.825Z,13.65
2022-08-19T20:21:27.229Z,13.80
2022-08-19T20:24:09.312Z,13.52
2022-08-19T20:26:38.222Z,13.93
2022-08-19T20:29:11.227Z,14.02
2022-08-19T20:31:57.990Z,13.93
2022-08-19T20:34:28.224Z,13.05
2022-08-19T20:36:56.046Z,16.30
2022-08-19T20:39:23.969Z,15.07
2022-08-19T20:41:51.967Z,15.82
2022-08-19T20:44:19.916Z,14.88
2022-08-19T20:46:55.644Z,17.08
2022-08-19T20:49:27.214Z,15.18
2022-08-19T20:51:56.221Z,17.23
2022-08-19T20:54:24.580Z,16.67
2022-08-19T20:56:53.007Z,16.75
2022-08-19T20:59:22.258Z,17.33
2022-08-19T21:01:52.305Z,16.88
2022-08-19T21:04:21.628Z,15.30
2022-08-19T21:06:49.835Z,15.80
2022-08-19T21:09:20.084Z,13.95
2022-08-19T21:11:48.305Z,15.07
2022-08-19T21:14:16.580Z,14.38
2022-08-19T21:16:44.742Z,13.30
2022-08-19T21:19:14.637Z,14.88
2022-08-19T21:21:43.047Z,13.80
2022-08-19T21:24:11.517Z,12.80
2022-08-19T21:26:39.909Z,14.40
2022-08-19T21:29:08.218Z,14.80
2022-08-19T21:31:36.342Z,15.60
2022-08-19T21:34:05.374Z,15.55
2022-08-19T21:36:35.076Z,15.27
2022-08-19T21:39:03.108Z,14.70
2022-08-19T21:41:31.203Z,14.57
2022-08-19T21:43:59.675Z,14.55
2022-08-19T21:46:28.458Z,14.18
2022-08-19T21:48:56.440Z,13.38
2022-08-19T21:51:24.410Z,15.52
2022-08-19T21:53:53.598Z,13.88
2022-08-19T21:56:21.376Z,13.82
2022-08-19T21:58:49.377Z,14.70
2022-08-19T22:01:18.399Z,14.90
2022-08-19T22:03:46.119Z,16.02
2022-08-19T22:06:13.985Z,14.77
2022-08-19T22:08:44.688Z,14.75
2022-08-19T22:11:13.742Z,14.45
2022-08-19T22:13:41.815Z,14.13
2022-08-19T22:16:11.284Z,14.15
2022-08-19T22:18:39.400Z,13.73
2022-08-19T22:21:11.634Z,12.93
2022-08-19T22:23:40.802Z,13.23
2022-08-19T22:26:09.140Z,11.23
2022-08-19T22:28:38.669Z,12.45
2022-08-19T22:31:07.832Z,12.05
2022-08-19T22:33:37.474Z,12.38
2022-08-19T22:36:07.462Z,11.40
2022-08-19T22:38:37.423Z,11.38
2022-08-19T22:41:07.636Z,10.95
2022-08-19T22:43:36.908Z,11.13
2022-08-19T22:46:15.066Z,10.10
2022-08-19T22:48:46.754Z,10.00
2022-08-19T22:51:32.365Z,10.32
2022-08-19T22:54:00.359Z,10.55
2022-08-19T22:56:30.632Z,11.57
2022-08-19T22:58:58.448Z,10.30
2022-08-19T23:01:30.585Z,11.55
2022-08-19T23:03:59.514Z,13.10
2022-08-19T23:06:31.214Z,12.93
2022-08-19T23:09:04.856Z,11.20
2022-08-19T23:11:38.039Z,11.68
2022-08-19T23:14:09.654Z,11.55
2022-08-19T23:16:39.433Z,11.95
2022-08-19T23:19:10.136Z,11.30
2022-08-19T23:21:38.563Z,10.90
2022-08-19T23:24:07.085Z,10.98
2022-08-19T23:26:36.085Z,11.30
2022-08-19T23:29:22.561Z,10.63
2022-08-19T23:31:51.864Z,9.93
2022-08-19T23:34:19.598Z,9.75
2022-08-19T23:36:48.283Z,9.20
2022-08-19T23:39:16.078Z,10.38
2022-08-19T23:41:44.010Z,9.48
2022-08-19T23:44:14.680Z,8.82
2022-08-19T23:46:54.627Z,8.85
2022-08-19T23:49:26.233Z,8.50
2022-08-19T23:51:55.848Z,8.90
2022-08-19T23:54:34.279Z,8.93
2022-08-19T23:57:13.768Z,8.20
2022-08-19T23:59:45.556Z,8.15
